Time;durP1;ratioP1;P1;durP2;ratioP2;P2;SDS_P1;SDS_P2;PMS_P1;PMS_P2;Temp;Humidity;BMP_temperature;BMP_pressure;BME280_temperature;BME280_humidity;BME280_pressure;Samples;Min_cycle;Max_cycle;Signal;HPM_P1;HPM_P2
2021/06/12 00:01:35;;;;;;;9.40;8.00;;;;;;;22.78;56.12;99327.35;1765617;80;21108;-69
2021/06/12 00:04:01;;;;;;;10.05;7.28;;;;;;;22.76;56.09;99319.48;1764954;80;21511;-70
2021/06/12 00:06:28;;;;;;;8.75;7.92;;;;;;;22.75;56.09;99323.28;1757552;79;21058;-68
2021/06/12 00:08:54;;;;;;;8.43;7.55;;;;;;;22.75;56.09;99321.92;1730348;82;21113;-68
2021/06/12 00:11:21;;;;;;;8.98;8.08;;;;;;;22.76;56.04;99321.38;1768530;80;21065;-69
2021/06/12 00:13:49;;;;;;;7.95;7.15;;;;;;;22.74;56.04;99320.28;1766906;80;21163;-68
2021/06/12 00:16:15;;;;;;;9.70;7.30;;;;;;;22.71;56.06;99315.37;1759184;80;21091;-69
2021/06/12 00:18:43;;;;;;;8.18;7.45;;;;;;;22.70;56.09;99311.05;1762519;80;21026;-70
2021/06/12 00:21:09;;;;;;;8.23;7.53;;;;;;;22.68;56.12;99309.68;1762046;80;21080;-69
2021/06/12 00:23:36;;;;;;;7.92;7.20;;;;;;;22.64;56.14;99305.31;1763486;80;21026;-69
2021/06/12 00:26:03;;;;;;;7.72;7.00;;;;;;;22.62;56.19;99310.69;1764035;80;21961;-68
2021/06/12 00:28:29;;;;;;;10.32;6.90;;;;;;;22.58;56.29;99311.22;1752849;80;21018;-68
2021/06/12 00:30:56;;;;;;;10.65;7.80;;;;;;;22.55;56.31;99306.31;1727637;82;21027;-68
2021/06/12 00:33:22;;;;;;;8.10;7.40;;;;;;;22.52;56.36;99300.59;1753899;80;21488;-70
2021/06/12 00:35:49;;;;;;;7.72;7.03;;;;;;;22.49;56.46;99298.41;1770570;80;20994;-69
2021/06/12 00:38:15;;;;;;;7.80;7.08;;;;;;;22.45;56.50;99299.46;1761225;80;21153;-69
2021/06/12 00:40:42;;;;;;;8.38;7.30;;;;;;;22.42;56.57;99297.26;1769433;80;21033;-69
2021/06/12 00:43:08;;;;;;;7.55;6.70;;;;;;;22.41;56.61;99298.86;1751790;80;21034;-68
2021/06/12 00:45:35;;;;;;;7.40;6.62;;;;;;;22.37;56.62;99300.75;1711373;82;21574;-68
2021/06/12 00:48:02;;;;;;;7.50;6.83;;;;;;;22.34;56.69;99302.59;1760505;80;21553;-67
2021/06/12 00:50:32;;;;;;;9.75;6.78;;;;;;;22.32;56.73;99300.69;1689535;83;22103;-69
2021/06/12 00:52:59;;;;;;;8.75;7.22;;;;;;;22.31;56.78;99302.29;1747591;80;21480;-69
2021/06/12 00:55:26;;;;;;;8.08;7.37;;;;;;;22.31;56.84;99305.83;1752480;80;21042;-71
2021/06/12 00:57:52;;;;;;;7.60;6.97;;;;;;;22.29;56.87;99306.63;1759487;80;21092;-69
2021/06/12 01:00:20;;;;;;;7.85;7.15;;;;;;;22.27;56.89;99305.23;1764949;80;20979;-69
2021/06/12 01:02:48;;;;;;;10.60;6.87;;;;;;;22.25;56.90;99301.97;1754447;80;21120;-70
2021/06/12 01:05:18;;;;;;;10.48;7.33;;;;;;;22.25;56.94;99304.16;1764398;80;21102;-69
2021/06/12 01:07:46;;;;;;;9.53;7.10;;;;;;;22.25;56.96;99304.67;1755962;80;20990;-69
2021/06/12 01:10:15;;;;;;;10.10;7.42;;;;;;;22.23;56.97;99299.48;1769906;80;21089;-69
2021/06/12 01:13:18;;;;;;;7.80;7.00;;;;;;;22.21;56.99;99302.98;1764808;80;21027;-68
2021/06/12 01:15:59;;;;;;;10.10;7.08;;;;;;;22.21;57.04;99296.22;1770755;80;21179;-70
2021/06/12 01:18:30;;;;;;;8.28;7.35;;;;;;;22.17;57.07;99294.58;1741312;80;21011;-71
2021/06/12 01:21:37;;;;;;;7.83;7.03;;;;;;;22.14;57.16;99292.91;1754751;80;21027;-68
2021/06/12 01:24:38;;;;;;;8.45;6.97;;;;;;;22.11;57.20;99299.63;1761773;80;21026;-69
2021/06/12 01:27:28;;;;;;;7.67;6.90;;;;;;;22.06;57.29;99297.41;1765278;80;22207;-68
2021/06/12 01:30:13;;;;;;;8.93;7.15;;;;;;;22.01;57.42;99302.23;1767618;80;21134;-69
2021/06/12 01:32:53;;;;;;;7.65;6.95;;;;;;;21.97;57.51;99305.17;1765101;80;21026;-68
2021/06/12 01:35:43;;;;;;;7.42;6.62;;;;;;;21.94;57.59;99305.16;1762476;80;21038;-69
2021/06/12 01:38:17;;;;;;;8.13;6.92;;;;;;;21.91;57.66;99305.65;1757511;80;21048;-70
2021/06/12 01:40:46;;;;;;;7.25;6.30;;;;;;;21.88;57.77;99302.63;1771252;80;21045;-69
2021/06/12 01:43:13;;;;;;;6.92;6.25;;;;;;;21.87;57.81;99307.23;1770351;80;21072;-70
2021/06/12 01:45:41;;;;;;;8.83;6.90;;;;;;;21.85;57.81;99312.08;1745259;80;21521;-68
2021/06/12 01:48:09;;;;;;;7.87;6.80;;;;;;;21.84;57.87;99321.24;1772527;80;21030;-69
2021/06/12 01:50:38;;;;;;;7.92;6.90;;;;;;;21.83;57.91;99321.48;1768558;80;20996;-68
2021/06/12 01:53:04;;;;;;;8.55;7.25;;;;;;;21.80;57.95;99320.92;1764654;80;21042;-68
2021/06/12 01:55:32;;;;;;;7.97;7.12;;;;;;;21.79;57.92;99317.95;1743536;80;21112;-69
2021/06/12 01:58:00;;;;;;;7.03;6.33;;;;;;;21.78;57.92;99313.60;1768281;80;21041;-68
2021/06/12 02:00:27;;;;;;;7.70;6.60;;;;;;;21.77;57.93;99314.69;1770016;80;21140;-69
2021/06/12 02:02:53;;;;;;;8.25;6.50;;;;;;;21.75;58.00;99308.72;1772955;80;21691;-69
2021/06/12 02:05:21;;;;;;;7.65;6.70;;;;;;;21.75;58.06;99317.34;1759322;80;21569;-69
2021/06/12 02:07:49;;;;;;;26.27;19.80;;;;;;;21.73;58.09;99318.97;1758562;79;21148;-68
2021/06/12 02:10:21;;;;;;;19.27;15.35;;;;;;;21.72;58.13;99315.16;1704516;83;21038;-68
2021/06/12 02:12:50;;;;;;;12.55;11.00;;;;;;;21.70;58.16;99319.45;1768742;80;21466;-70
2021/06/12 02:15:16;;;;;;;9.95;8.40;;;;;;;21.70;58.21;99320.00;1770182;80;21072;-69
2021/06/12 02:17:43;;;;;;;9.50;7.80;;;;;;;21.69;58.28;99320.55;1757147;80;21062;-69
2021/06/12 02:20:11;;;;;;;10.65;7.65;;;;;;;21.69;58.32;99318.35;1765218;80;21183;-70
2021/06/12 02:22:42;;;;;;;8.90;7.78;;;;;;;21.68;58.38;99322.14;1705952;83;21016;-69
2021/06/12 02:25:11;;;;;;;11.65;8.80;;;;;;;21.67;58.42;99319.14;1768157;80;21049;-69
2021/06/12 02:27:39;;;;;;;13.35;9.70;;;;;;;21.65;58.47;99322.09;1768629;80;21090;-68
2021/06/12 02:30:07;;;;;;;11.35;10.10;;;;;;;21.66;58.53;99322.92;1747729;80;21541;-69
2021/06/12 02:32:37;;;;;;;11.22;10.10;;;;;;;21.64;58.58;99326.42;1744453;80;21112;-70
2021/06/12 02:35:07;;;;;;;21.62;15.80;;;;;;;21.64;58.66;99323.71;1765332;80;21070;-70
2021/06/12 02:37:33;;;;;;;12.50;11.20;;;;;;;21.64;58.74;99323.17;1739469;81;21263;-71
2021/06/12 02:40:01;;;;;;;13.20;10.95;;;;;;;21.63;58.85;99322.87;1724381;82;21034;-70
2021/06/12 02:42:28;;;;;;;13.28;9.70;;;;;;;21.63;58.96;99324.22;1721494;83;21054;-70
2021/06/12 02:44:54;;;;;;;10.95;9.48;;;;;;;21.64;59.04;99327.77;1729898;82;21104;-70
2021/06/12 02:47:21;;;;;;;10.35;8.73;;;;;;;21.64;59.12;99330.47;1730953;82;21006;-70
2021/06/12 02:49:48;;;;;;;10.90;8.45;;;;;;;21.64;59.18;99328.58;1720728;82;21140;-69
2021/06/12 02:52:22;;;;;;;9.90;8.90;;;;;;;21.64;59.27;99329.93;1723286;82;21089;-70
2021/06/12 02:54:50;;;;;;;8.88;8.00;;;;;;;21.65;59.32;99340.20;1721201;83;21077;-70
2021/06/12 02:57:17;;;;;;;10.15;9.08;;;;;;;21.64;59.38;99335.34;1725745;83;21105;-69
2021/06/12 02:59:44;;;;;;;10.38;9.25;;;;;;;21.65;59.41;99338.84;1737523;81;21101;-70
2021/06/12 03:02:16;;;;;;;11.70;9.63;;;;;;;21.64;59.50;99335.34;1711831;83;21074;-69
2021/06/12 03:04:43;;;;;;;11.53;8.60;;;;;;;21.66;59.62;99336.44;1711933;82;21025;-71
2021/06/12 03:07:12;;;;;;;10.00;8.68;;;;;;;21.67;59.73;99347.01;1691772;83;21161;-70
2021/06/12 03:09:39;;;;;;;12.05;8.93;;;;;;;21.69;59.85;99346.73;1710083;83;21141;-70
2021/06/12 03:12:07;;;;;;;9.30;8.35;;;;;;;21.70;59.96;99342.44;1737236;81;21645;-70
2021/06/12 03:14:33;;;;;;;9.28;8.38;;;;;;;21.72;60.03;99337.59;1732142;81;21038;-69
2021/06/12 03:17:00;;;;;;;9.70;8.15;;;;;;;21.74;60.13;99339.51;1734385;82;21594;-69
2021/06/12 03:19:26;;;;;;;9.33;7.83;;;;;;;21.76;60.13;99338.72;1734827;82;21554;-69
2021/06/12 03:21:53;;;;;;;9.75;8.63;;;;;;;21.79;60.18;99340.13;1739346;82;21131;-68
2021/06/12 03:24:20;;;;;;;8.95;8.05;;;;;;;21.80;60.27;99341.20;1711670;83;21003;-69
2021/06/12 03:26:47;;;;;;;10.60;7.97;;;;;;;21.83;60.36;99339.90;1724429;82;21116;-69
2021/06/12 03:29:13;;;;;;;14.60;11.80;;;;;;;21.86;60.38;99346.14;1707442;82;21041;-69
2021/06/12 03:31:40;;;;;;;9.65;8.65;;;;;;;21.88;60.33;99343.19;1734517;81;21058;-70
2021/06/12 03:34:08;;;;;;;8.90;7.97;;;;;;;21.90;60.51;99349.97;1738533;82;21106;-70
2021/06/12 03:36:35;;;;;;;9.40;8.15;;;;;;;21.93;60.56;99358.13;1712778;82;21106;-69
2021/06/12 03:39:02;;;;;;;7.67;6.97;;;;;;;21.95;60.68;99354.64;1766609;80;21076;-69
2021/06/12 03:41:28;;;;;;;8.45;7.60;;;;;;;21.96;60.79;99357.09;1764711;80;21049;-69
2021/06/12 03:43:55;;;;;;;9.50;7.25;;;;;;;22.01;60.82;99358.22;1777652;80;21023;-70
2021/06/12 03:46:21;;;;;;;7.65;6.90;;;;;;;22.05;60.87;99365.56;1781103;80;21045;-69
2021/06/12 03:48:50;;;;;;;7.58;6.58;;;;;;;22.08;60.98;99359.66;1766238;80;21033;-70
2021/06/12 03:51:17;;;;;;;6.50;5.90;;;;;;;22.12;61.12;99358.63;1763867;80;21520;-70
2021/06/12 03:53:44;;;;;;;6.90;6.20;;;;;;;22.16;61.25;99365.16;1771179;80;21082;-68
2021/06/12 03:56:23;;;;;;;7.28;6.58;;;;;;;22.19;61.31;99363.28;1748863;80;21046;-69
2021/06/12 03:58:50;;;;;;;6.50;5.90;;;;;;;22.23;61.36;99361.70;1776068;80;21122;-68
2021/06/12 04:01:18;;;;;;;6.10;5.60;;;;;;;22.25;61.41;99363.67;1706177;83;21066;-68
2021/06/12 04:03:45;;;;;;;7.90;6.35;;;;;;;22.29;61.46;99363.45;1774342;80;21329;-69
2021/06/12 04:06:12;;;;;;;5.33;4.92;;;;;;;22.33;61.43;99365.11;1773723;80;20997;-69
2021/06/12 04:08:38;;;;;;;6.97;6.40;;;;;;;22.36;61.40;99362.69;1765594;80;21053;-68
2021/06/12 04:11:07;;;;;;;6.53;5.65;;;;;;;22.43;61.36;99364.40;1777114;80;21144;-68
2021/06/12 04:13:33;;;;;;;6.58;5.97;;;;;;;22.47;61.26;99366.88;1773382;80;21025;-68
2021/06/12 04:15:59;;;;;;;7.33;6.22;;;;;;;22.52;61.20;99361.48;1783829;79;21037;-68
2021/06/12 04:18:26;;;;;;;5.75;5.22;;;;;;;22.56;61.12;99363.96;1767503;80;21014;-69
2021/06/12 04:20:52;;;;;;;6.50;5.90;;;;;;;22.60;61.02;99369.17;1764340;80;21545;-69
2021/06/12 04:23:19;;;;;;;6.42;5.83;;;;;;;22.68;60.91;99370.59;1762814;80;21136;-67
2021/06/12 04:25:45;;;;;;;6.90;6.20;;;;;;;22.74;60.78;99374.44;1734902;81;21017;-67
2021/06/12 04:28:12;;;;;;;6.12;5.45;;;;;;;22.82;60.67;99372.34;1761180;80;21036;-67
2021/06/12 04:30:38;;;;;;;6.22;5.40;;;;;;;22.89;60.44;99376.98;1761798;80;21022;-68
2021/06/12 04:33:05;;;;;;;6.55;5.90;;;;;;;22.95;60.26;99382.74;1760639;80;21020;-68
2021/06/12 04:35:32;;;;;;;7.53;5.60;;;;;;;23.01;60.13;99376.83;1736119;82;21147;-67
2021/06/12 04:37:59;;;;;;;7.33;5.60;;;;;;;23.09;59.91;99373.67;1740371;82;21054;-67
2021/06/12 04:40:28;;;;;;;5.58;4.90;;;;;;;23.19;59.61;99377.80;1762758;80;21081;-67
2021/06/12 04:42:54;;;;;;;5.00;4.60;;;;;;;23.28;59.62;99379.50;1725086;82;21148;-67
2021/06/12 04:45:21;;;;;;;5.65;4.45;;;;;;;23.36;59.33;99381.72;1780249;80;21061;-68
2021/06/12 04:47:49;;;;;;;5.08;4.67;;;;;;;23.44;58.94;99383.93;1777271;80;21126;-69
2021/06/12 04:50:16;;;;;;;6.22;4.65;;;;;;;23.51;58.94;99376.94;1774875;80;21475;-68
2021/06/12 04:52:43;;;;;;;4.85;4.45;;;;;;;23.60;58.71;99374.53;1780699;80;21049;-69
2021/06/12 04:55:12;;;;;;;5.75;5.10;;;;;;;23.67;58.44;99370.50;1709005;82;22134;-69
2021/06/12 04:57:38;;;;;;;4.85;4.45;;;;;;;23.74;58.41;99373.80;1778513;80;21002;-68
2021/06/12 05:00:08;;;;;;;5.55;4.90;;;;;;;23.80;58.31;99368.41;1780629;80;21098;-68
2021/06/12 05:02:38;;;;;;;5.03;4.53;;;;;;;23.86;58.07;99372.26;1766435;80;21564;-69
2021/06/12 05:05:07;;;;;;;5.22;4.70;;;;;;;23.92;57.98;99371.73;1773395;80;21707;-69
2021/06/12 05:07:33;;;;;;;4.50;4.10;;;;;;;23.97;57.83;99373.64;1772824;80;21041;-69
2021/06/12 05:10:03;;;;;;;5.90;4.33;;;;;;;24.01;57.76;99371.52;1770766;80;21069;-68
2021/06/12 05:12:29;;;;;;;5.97;4.45;;;;;;;24.05;57.45;99369.89;1768923;80;21088;-69
2021/06/12 05:14:59;;;;;;;4.50;4.10;;;;;;;24.09;57.15;99371.54;1776054;80;21518;-69
2021/06/12 05:17:26;;;;;;;4.70;4.03;;;;;;;24.13;56.87;99373.44;1763676;80;21077;-69
2021/06/12 05:19:52;;;;;;;4.60;4.20;;;;;;;24.16;56.77;99376.16;1773985;80;21124;-70
2021/06/12 05:22:27;;;;;;;4.95;4.20;;;;;;;24.21;56.60;99374.02;1766433;80;21093;-70
2021/06/12 05:24:54;;;;;;;5.60;4.45;;;;;;;24.24;56.36;99372.94;1769020;80;21084;-68
2021/06/12 05:27:22;;;;;;;4.62;3.98;;;;;;;24.27;56.45;99371.03;1779436;80;21614;-67
2021/06/12 05:29:49;;;;;;;4.95;4.28;;;;;;;24.30;56.66;99368.34;1781547;80;21022;-67
2021/06/12 05:32:15;;;;;;;6.17;4.53;;;;;;;24.34;56.77;99365.37;1762537;80;21688;-67
2021/06/12 05:34:42;;;;;;;4.37;3.98;;;;;;;24.38;56.73;99366.45;1765439;80;21513;-67
2021/06/12 05:37:09;;;;;;;4.55;3.90;;;;;;;24.42;56.44;99368.09;1768422;80;21183;-67
2021/06/12 05:39:36;;;;;;;6.45;4.30;;;;;;;24.47;56.31;99369.44;1754801;80;21033;-67
2021/06/12 05:42:05;;;;;;;4.40;4.00;;;;;;;24.51;56.22;99361.90;1767267;80;21511;-67
2021/06/12 05:44:33;;;;;;;4.03;3.30;;;;;;;24.57;55.83;99369.52;1752424;80;21026;-68
2021/06/12 05:46:59;;;;;;;4.17;3.80;;;;;;;24.60;55.56;99366.79;1737327;82;21117;-67
2021/06/12 05:49:26;;;;;;;5.35;3.95;;;;;;;24.64;55.38;99364.61;1776282;80;21311;-67
2021/06/12 05:51:52;;;;;;;5.47;4.25;;;;;;;24.68;55.34;99368.41;1766524;80;21057;-67
2021/06/12 05:54:19;;;;;;;7.65;4.20;;;;;;;24.73;55.08;99361.64;1773904;80;21023;-66
2021/06/12 05:56:46;;;;;;;7.20;4.12;;;;;;;24.78;54.88;99360.00;1769591;80;21049;-66
2021/06/12 05:59:12;;;;;;;4.53;3.90;;;;;;;24.83;54.64;99363.54;1778554;80;21116;-67
2021/06/12 06:01:38;;;;;;;4.53;4.12;;;;;;;24.87;54.51;99361.10;1738916;82;21110;-69
2021/06/12 06:15:14;;;;;;;4.42;4.00;;;;;;;26.73;50.31;99359.39;1761732;80;22619;-67
2021/06/12 06:17:41;;;;;;;4.05;3.75;;;;;;;26.82;49.75;99357.12;1720196;81;21081;-67
2021/06/12 06:20:09;;;;;;;4.40;4.00;;;;;;;26.76;49.77;99353.37;1747263;80;21083;-67
2021/06/12 06:22:36;;;;;;;4.78;4.30;;;;;;;26.72;49.84;99359.95;1752420;80;21012;-67
2021/06/12 06:25:05;;;;;;;4.30;3.95;;;;;;;26.66;49.76;99359.72;1747906;80;21044;-67
2021/06/12 06:27:32;;;;;;;4.95;4.30;;;;;;;26.62;49.79;99353.22;1736454;81;21095;-67
2021/06/12 06:29:58;;;;;;;4.65;4.03;;;;;;;26.59;49.86;99356.50;1736856;81;21521;-66
2021/06/12 06:32:25;;;;;;;4.95;3.85;;;;;;;26.57;49.84;99358.66;1736693;81;21069;-66
2021/06/12 06:34:51;;;;;;;4.65;4.25;;;;;;;26.53;49.89;99356.24;1736998;81;21014;-66
2021/06/12 06:37:17;;;;;;;6.20;3.90;;;;;;;26.48;49.87;99359.27;1742201;81;21032;-68
2021/06/12 06:39:44;;;;;;;4.12;3.77;;;;;;;26.44;49.97;99358.73;1752317;81;21100;-68
2021/06/12 06:42:11;;;;;;;4.25;3.95;;;;;;;26.38;49.94;99362.04;1755151;80;21552;-67
2021/06/12 06:44:37;;;;;;;4.42;4.08;;;;;;;26.33;50.01;99356.64;1736300;81;21321;-67
2021/06/12 06:47:05;;;;;;;4.08;3.77;;;;;;;26.26;49.74;99359.66;1721695;81;21119;-66
2021/06/12 06:49:32;;;;;;;4.28;3.87;;;;;;;26.19;50.08;99352.91;1723478;81;21108;-67
2021/06/12 06:51:58;;;;;;;5.33;4.30;;;;;;;26.16;50.36;99354.84;1716718;81;21006;-66
2021/06/12 06:54:25;;;;;;;4.78;4.15;;;;;;;26.14;50.40;99359.20;1746406;81;21057;-67
2021/06/12 06:56:51;;;;;;;4.03;3.65;;;;;;;26.13;50.24;99362.20;1719609;81;21166;-67
2021/06/12 06:59:17;;;;;;;5.33;4.05;;;;;;;26.11;50.22;99358.94;1731878;81;21029;-68
2021/06/12 07:01:44;;;;;;;4.25;3.85;;;;;;;26.11;50.28;99360.30;1719860;81;21096;-65
2021/06/12 07:04:10;;;;;;;4.20;3.83;;;;;;;26.11;50.19;99360.30;1733899;81;21065;-65
2021/06/12 07:06:37;;;;;;;4.85;4.17;;;;;;;26.11;50.20;99367.91;1727141;82;21448;-62
2021/06/12 07:09:04;;;;;;;4.12;3.72;;;;;;;26.12;50.00;99365.47;1713538;81;21810;-66
2021/06/12 07:11:31;;;;;;;4.30;3.90;;;;;;;26.15;50.61;99362.73;1734535;81;21033;-68
2021/06/12 07:13:57;;;;;;;3.95;3.65;;;;;;;26.18;50.65;99356.18;1738797;81;21493;-67
2021/06/12 07:16:24;;;;;;;5.03;4.17;;;;;;;26.22;50.92;99361.88;1731177;81;21026;-65
2021/06/12 07:18:51;;;;;;;8.18;3.92;;;;;;;26.24;51.03;99358.33;1717743;81;21064;-67
2021/06/12 07:21:17;;;;;;;6.12;4.17;;;;;;;26.27;51.00;99358.58;1724477;81;21137;-65
2021/06/12 07:23:43;;;;;;;6.92;4.67;;;;;;;26.31;50.82;99362.92;1734030;81;21571;-65
2021/06/12 07:26:10;;;;;;;5.35;4.08;;;;;;;26.31;50.60;99356.11;1719302;81;21053;-66
2021/06/12 07:28:37;;;;;;;6.62;4.40;;;;;;;26.33;50.36;99353.92;1738586;81;21770;-67
2021/06/12 07:31:03;;;;;;;5.05;4.20;;;;;;;26.35;50.32;99354.45;1733376;81;21072;-67
2021/06/12 07:33:30;;;;;;;6.75;4.30;;;;;;;26.37;50.05;99352.27;1747255;81;21140;-66
2021/06/12 07:35:57;;;;;;;6.30;3.92;;;;;;;26.37;49.80;99353.63;1730176;81;21034;-66
2021/06/12 07:38:23;;;;;;;5.75;4.42;;;;;;;26.36;49.92;99351.98;1722826;81;21052;-66
2021/06/12 07:40:50;;;;;;;6.67;4.90;;;;;;;26.38;50.11;99357.15;1744175;81;21105;-65
2021/06/12 07:43:21;;;;;;;4.45;3.77;;;;;;;26.40;50.16;99357.12;1728712;81;21092;-65
2021/06/12 07:45:48;;;;;;;4.65;3.80;;;;;;;26.42;50.07;99353.56;1725960;81;21157;-68
2021/06/12 07:48:15;;;;;;;4.25;3.83;;;;;;;26.46;49.95;99357.38;1718217;81;21090;-67
2021/06/12 07:50:42;;;;;;;4.28;3.80;;;;;;;26.49;49.80;99351.34;1730629;81;21535;-66
2021/06/12 07:53:08;;;;;;;5.00;3.98;;;;;;;26.53;49.50;99350.23;1745948;81;21006;-66
2021/06/12 07:55:35;;;;;;;3.90;3.60;;;;;;;26.55;49.19;99348.05;1735354;81;21076;-66
2021/06/12 07:58:03;;;;;;;5.00;3.90;;;;;;;26.59;49.35;99351.86;1749008;81;21152;-66
2021/06/12 08:00:29;;;;;;;6.08;3.45;;;;;;;26.63;49.27;99354.83;1730893;81;21523;-65
2021/06/12 08:02:55;;;;;;;6.10;3.70;;;;;;;26.66;48.88;99346.91;1758305;81;21022;-67
2021/06/12 08:05:24;;;;;;;3.83;3.47;;;;;;;26.70;48.57;99355.89;1742568;81;21057;-66
2021/06/12 08:07:50;;;;;;;3.90;3.27;;;;;;;26.72;48.36;99355.05;1739021;81;21074;-66
2021/06/12 08:10:18;;;;;;;5.15;3.60;;;;;;;26.74;48.54;99355.02;1741474;81;21050;-65
2021/06/12 08:12:46;;;;;;;3.40;3.08;;;;;;;26.78;48.52;99350.63;1745494;81;21365;-66
2021/06/12 08:15:14;;;;;;;3.55;3.25;;;;;;;26.82;48.03;99349.52;1724007;81;21032;-66
2021/06/12 08:17:41;;;;;;;3.58;3.27;;;;;;;26.86;48.06;99350.01;1720541;81;20982;-67
2021/06/12 08:20:09;;;;;;;4.12;3.60;;;;;;;26.90;47.84;99354.90;1733562;81;21899;-65
2021/06/12 08:22:35;;;;;;;3.60;3.30;;;;;;;26.94;47.48;99347.22;1728780;81;21123;-66
2021/06/12 08:25:04;;;;;;;3.95;3.60;;;;;;;26.98;47.08;99348.83;1727911;81;21088;-68
2021/06/12 08:27:30;;;;;;;3.62;3.33;;;;;;;27.01;46.74;99353.72;1731109;81;21548;-69
2021/06/12 08:29:57;;;;;;;3.60;3.30;;;;;;;27.04;46.77;99353.13;1731564;81;21020;-69
2021/06/12 08:32:23;;;;;;;4.15;3.20;;;;;;;27.07;46.84;99343.02;1721860;81;21037;-69
2021/06/12 08:34:50;;;;;;;3.80;3.50;;;;;;;27.09;46.98;99344.91;1737380;81;21811;-66
2021/06/12 08:37:16;;;;;;;4.28;3.65;;;;;;;27.10;46.38;99347.08;1724282;81;21537;-67
2021/06/12 08:39:43;;;;;;;5.75;3.55;;;;;;;27.09;46.09;99341.38;1732523;81;22100;-66
2021/06/12 08:42:10;;;;;;;3.20;2.95;;;;;;;27.09;46.08;99348.19;1715921;81;21030;-66
2021/06/12 08:44:37;;;;;;;3.52;3.22;;;;;;;27.10;46.34;99346.55;1713114;81;21112;-66
2021/06/12 08:47:04;;;;;;;3.90;3.50;;;;;;;27.11;46.03;99351.44;1725715;81;21093;-66
2021/06/12 08:49:31;;;;;;;4.10;3.80;;;;;;;27.06;45.87;99341.38;1733112;81;21107;-66
2021/06/12 08:51:58;;;;;;;5.28;3.40;;;;;;;27.12;45.90;99346.23;1732493;81;21097;-67
2021/06/12 08:54:26;;;;;;;3.98;3.42;;;;;;;27.13;46.14;99347.32;1721464;81;21063;-67
2021/06/12 08:56:53;;;;;;;3.77;3.40;;;;;;;27.15;45.94;99346.48;1721418;81;20998;-67
2021/06/12 08:59:20;;;;;;;3.58;3.27;;;;;;;27.17;46.23;99344.28;1726056;81;21573;-67
2021/06/12 09:01:47;;;;;;;3.77;2.98;;;;;;;27.20;46.00;99340.18;1706332;82;21068;-66
2021/06/12 09:04:34;;;;;;;3.45;3.15;;;;;;;27.22;46.32;99337.98;1751201;81;21024;-66
2021/06/12 09:07:28;;;;;;;3.52;3.22;;;;;;;27.23;46.51;99331.41;1707296;82;21026;-69
2021/06/12 09:09:56;;;;;;;3.30;3.00;;;;;;;27.25;46.63;99332.80;1713394;81;21028;-69
2021/06/12 09:12:23;;;;;;;3.85;3.52;;;;;;;27.26;46.24;99330.87;1738021;81;21130;-69
2021/06/12 09:15:11;;;;;;;3.83;3.40;;;;;;;27.28;46.41;99332.76;1739568;80;21022;-68
2021/06/12 09:17:50;;;;;;;3.40;3.10;;;;;;;27.31;46.39;99330.00;1750934;80;21513;-71
2021/06/12 09:20:31;;;;;;;3.40;3.08;;;;;;;27.35;46.40;99322.86;1748165;80;21089;-70
2021/06/12 09:23:12;;;;;;;3.75;3.33;;;;;;;27.38;46.54;99322.30;1747428;80;21029;-67
2021/06/12 09:25:48;;;;;;;3.42;3.08;;;;;;;27.42;46.60;99326.06;1734945;81;21190;-67
2021/06/12 09:28:15;;;;;;;4.30;3.67;;;;;;;27.45;45.68;99329.59;1754132;80;21007;-70
2021/06/12 09:30:42;;;;;;;3.83;3.47;;;;;;;27.48;46.08;99323.53;1744465;80;21470;-71
2021/06/12 09:33:08;;;;;;;4.08;3.50;;;;;;;27.51;46.14;99324.33;1755121;80;21075;-70
2021/06/12 09:35:40;;;;;;;4.47;3.85;;;;;;;27.54;44.89;99319.64;1753490;80;21040;-69
2021/06/12 09:38:28;;;;;;;5.75;3.83;;;;;;;27.58;45.52;99312.52;1744981;80;21163;-66
2021/06/12 09:40:55;;;;;;;3.77;3.35;;;;;;;27.62;45.31;99314.92;1747375;80;21620;-67
2021/06/12 09:43:30;;;;;;;6.17;3.92;;;;;;;27.66;43.69;99309.67;1760323;80;21058;-65
2021/06/12 09:45:57;;;;;;;4.92;3.22;;;;;;;27.70;44.92;99310.73;1746575;81;21579;-68
2021/06/12 09:48:23;;;;;;;5.95;3.77;;;;;;;27.77;45.53;99304.34;1745983;81;21038;-69
2021/06/12 09:51:14;;;;;;;6.08;4.03;;;;;;;27.83;46.10;99295.55;1751413;81;21514;-71
2021/06/12 09:53:52;;;;;;;7.90;4.25;;;;;;;27.90;46.53;99296.59;1742310;81;21026;-69
2021/06/12 09:56:20;;;;;;;5.10;3.80;;;;;;;27.96;46.73;99289.39;1741429;81;21155;-68
2021/06/12 09:58:48;;;;;;;4.53;3.70;;;;;;;28.03;46.70;99294.50;1746927;81;21083;-68
2021/06/12 10:01:16;;;;;;;4.87;3.22;;;;;;;28.10;46.65;99284.56;1720198;82;21524;-66
2021/06/12 10:03:43;;;;;;;4.85;4.20;;;;;;;28.16;46.58;99297.03;1717467;81;21154;-68
2021/06/12 10:06:19;;;;;;;5.00;3.50;;;;;;;28.20;45.45;99295.33;1715831;81;21096;-67
2021/06/12 10:08:49;;;;;;;4.53;3.60;;;;;;;28.27;45.92;99298.50;1731967;82;21058;-69
2021/06/12 10:11:16;;;;;;;5.53;4.03;;;;;;;28.32;45.93;99288.05;1716169;81;21113;-66
2021/06/12 10:13:44;;;;;;;4.97;3.77;;;;;;;28.36;46.11;99287.73;1735260;81;21170;-69
2021/06/12 10:16:11;;;;;;;7.17;3.40;;;;;;;28.41;46.11;99287.10;1730888;80;21764;-70
2021/06/12 10:18:42;;;;;;;7.22;3.72;;;;;;;28.47;46.06;99288.37;1750029;81;21029;-71
2021/06/12 10:21:15;;;;;;;3.80;3.50;;;;;;;28.53;45.93;99281.73;1722613;81;21053;-71
2021/06/12 10:23:45;;;;;;;4.22;3.83;;;;;;;28.56;45.68;99278.42;1710767;82;21033;-69
2021/06/12 10:26:13;;;;;;;5.60;4.30;;;;;;;28.62;45.26;99273.12;1719927;82;21041;-67
2021/06/12 10:28:39;;;;;;;4.90;3.50;;;;;;;28.65;44.92;99273.90;1716912;81;21840;-72
2021/06/12 10:31:17;;;;;;;7.03;4.15;;;;;;;28.71;45.04;99276.80;1716372;83;21045;-68
2021/06/12 10:33:46;;;;;;;5.17;3.80;;;;;;;28.75;45.02;99272.91;1731238;82;21022;-66
2021/06/12 10:36:19;;;;;;;6.08;3.50;;;;;;;28.78;44.89;99263.56;1727349;81;21077;-67
2021/06/12 10:38:46;;;;;;;4.03;3.58;;;;;;;28.82;44.47;99258.30;1711777;82;21551;-66
2021/06/12 10:41:18;;;;;;;5.83;3.60;;;;;;;28.84;44.13;99256.08;1730254;82;21137;-68
2021/06/12 10:43:45;;;;;;;4.30;3.90;;;;;;;28.88;43.98;99260.36;1721072;82;21013;-67
2021/06/12 10:46:21;;;;;;;4.70;3.65;;;;;;;28.89;43.94;99258.70;1731928;82;21057;-68
2021/06/12 10:49:01;;;;;;;8.20;3.55;;;;;;;28.92;43.96;99253.20;1709317;81;21057;-68
2021/06/12 10:51:34;;;;;;;5.47;3.67;;;;;;;28.92;43.99;99249.91;1750175;81;21496;-75
2021/06/12 10:54:26;;;;;;;4.65;3.60;;;;;;;28.92;43.79;99249.91;1736296;80;21140;-77
2021/06/12 10:57:16;;;;;;;4.80;4.30;;;;;;;28.94;44.00;99249.61;1735624;81;21045;-75
2021/06/12 10:59:46;;;;;;;6.25;4.28;;;;;;;28.96;43.51;99248.75;1733158;81;21602;-75
2021/06/12 11:02:26;;;;;;;4.20;3.75;;;;;;;29.00;41.52;99244.30;1750211;80;22092;-78
2021/06/12 11:04:58;;;;;;;4.17;3.83;;;;;;;29.04;40.84;99240.41;1737486;80;21056;-74
2021/06/12 11:07:31;;;;;;;7.03;3.42;;;;;;;29.11;40.29;99238.89;1749734;80;21122;-74
2021/06/12 11:10:22;;;;;;;4.05;3.65;;;;;;;29.19;39.86;99244.23;1750959;81;21063;-75
2021/06/12 11:12:56;;;;;;;3.90;3.60;;;;;;;29.26;39.42;99239.72;1750505;81;21113;-75
2021/06/12 11:15:27;;;;;;;4.28;3.52;;;;;;;29.30;39.06;99232.52;1735504;80;21551;-76
2021/06/12 11:18:17;;;;;;;3.67;3.33;;;;;;;29.34;38.76;99238.46;1745624;80;21111;-75
2021/06/12 11:20:48;;;;;;;4.00;3.40;;;;;;;29.35;38.85;99233.80;1743365;81;21544;-76
2021/06/12 11:23:20;;;;;;;3.87;3.55;;;;;;;29.34;38.90;99232.16;1753722;80;21042;-75
2021/06/12 11:25:50;;;;;;;5.30;3.45;;;;;;;29.33;39.03;99231.92;1745027;81;21544;-75
2021/06/12 11:28:30;;;;;;;4.45;3.67;;;;;;;29.32;39.24;99230.28;1736925;81;21514;-75
2021/06/12 11:31:37;;;;;;;3.92;3.52;;;;;;;29.29;39.18;99243.22;1733622;81;21059;-74
2021/06/12 11:34:25;;;;;;;3.80;3.50;;;;;;;29.26;39.35;99249.29;1743771;81;21110;-74
2021/06/12 11:37:20;;;;;;;4.87;3.83;;;;;;;29.16;39.62;99256.58;1732827;80;21125;-75
2021/06/12 11:39:53;;;;;;;5.95;4.10;;;;;;;29.07;40.21;99265.22;1728566;81;21041;-75
2021/06/12 11:42:20;;;;;;;4.58;4.12;;;;;;;28.96;40.79;99251.48;1747678;81;21039;-75
2021/06/12 11:44:47;;;;;;;5.35;4.58;;;;;;;28.85;41.10;99255.52;1754749;81;21556;-74
2021/06/12 11:47:28;;;;;;;4.35;3.77;;;;;;;28.73;41.24;99251.34;1750345;80;21151;-75
2021/06/12 11:49:55;;;;;;;4.80;3.93;;;;;;;28.61;41.48;99251.82;1748726;81;22091;-74
2021/06/12 11:52:21;;;;;;;7.92;3.62;;;;;;;28.51;41.70;99255.23;1746221;81;21100;-75
2021/06/12 11:54:47;;;;;;;6.08;3.52;;;;;;;28.41;41.89;99250.23;1702230;82;21045;-73